Kezdőlap
METAR-TAF:

METAR-TAF

Repülőterek :

Grise Fiord, Nunavut, Kanada

földrajzi szélesség: 76-25N, földrajzi hosszúság: 082-54W, magasság: 45 m

Jelenlegi meteorológiai megfigyelések

A jelentés 13 órával és 13 perccel ezelõtt készült, 21:00 UTC
Észak-északnyugati szél 9 kt széllökések: 19 kt, nyugat-északnyugati és keleti között változik
Hőmérséklet -16°C
Páratartalom 46%
Légköri nyomás 997 hPa
Látótávolság: 17.7 km
Kevés felhő 2900 lábon
hófúvás

METAR: CWGZ 122100Z 34009G19KT 300V080 11SM BLSN FEW029 M16/M25 A2943 RMK SC1 S0 AFT 13UTC/LAST STFD OBS/NEXT 131300 UTC SLP973

Idő: 05:13 (10:13 UTC)


TAF: hiányzik

Meteorológiai megfigyelések és előrejelzések több, mint 4000 repülőtéren (METAR és TAF jelentéseket).

A térképen piros és sárga pontok jelzik az elérhető meteorológiai állomásokat.

Mozgassa az egeret a pont fölött, hogy megjelenjen az állomás neve.

Azután kattintson az időjárási megfigyelések és előrejelzések megtekintéséhez.

A térkép megváltoztatása: kattintson a fekete keresztel jelölt zöld gombra ráközelítéshez, a vonallal jelölt zöld gombra távolításhoz, vagy a zöld nyilakra a szomszédos térképek eléréséhez.


METAR-TAF: